createdAt,value
2024-02-13T00:00:30.255Z,97975.03
2024-02-13T00:02:58.774Z,97973.13
2024-02-13T00:05:28.364Z,97981.03
2024-02-13T00:08:01.299Z,97995.72
2024-02-13T00:10:31.679Z,97998.84
2024-02-13T00:13:00.839Z,97997.88
2024-02-13T00:15:29.452Z,98004.91
2024-02-13T00:17:58.172Z,98011.75
2024-02-13T00:20:27.170Z,98014.72
2024-02-13T00:22:56.642Z,98020.16
2024-02-13T00:25:27.194Z,98024.50
2024-02-13T00:27:56.937Z,98018.78
2024-02-13T00:30:25.732Z,98021.66
2024-02-13T00:32:54.130Z,98022.31
2024-02-13T00:35:22.727Z,98030.59
2024-02-13T00:37:51.115Z,98023.13
2024-02-13T00:40:19.525Z,98028.84
2024-02-13T00:42:50.370Z,98034.28
2024-02-13T00:45:20.435Z,98040.53
2024-02-13T00:47:49.892Z,98043.53
2024-02-13T00:50:18.664Z,98039.31
2024-02-13T00:52:47.190Z,98044.88
2024-02-13T00:55:15.637Z,98041.38
2024-02-13T00:57:45.149Z,98040.94
2024-02-13T01:00:14.357Z,98044.22
2024-02-13T01:02:44.244Z,98046.00
2024-02-13T01:05:12.831Z,98043.81
2024-02-13T01:07:41.249Z,98046.00
2024-02-13T01:10:10.612Z,98055.75
2024-02-13T01:12:40.302Z,98049.63
2024-02-13T01:15:09.540Z,98052.38
2024-02-13T01:17:38.014Z,98054.25
2024-02-13T01:20:12.653Z,98051.94
2024-02-13T01:22:43.238Z,98056.56
2024-02-13T01:25:15.505Z,98052.09
2024-02-13T01:27:43.999Z,98060.09
2024-02-13T01:30:15.225Z,98059.03
2024-02-13T01:32:43.763Z,98064.69
2024-02-13T01:35:14.931Z,98064.03
2024-02-13T01:37:43.480Z,98060.09
2024-02-13T01:40:17.337Z,98063.22
2024-02-13T01:42:49.843Z,98067.16
2024-02-13T01:45:18.964Z,98069.72
2024-02-13T01:47:47.674Z,98079.47
2024-02-13T01:50:21.714Z,98076.03
2024-02-13T01:52:53.921Z,98081.25
2024-02-13T01:55:26.486Z,98078.50
2024-02-13T01:57:57.838Z,98078.66
2024-02-13T02:00:28.527Z,98082.06
2024-02-13T02:02:57.347Z,98081.69
2024-02-13T02:05:27.183Z,98087.50
2024-02-13T02:07:57.457Z,98092.66
2024-02-13T02:10:26.044Z,98086.41
2024-02-13T02:12:54.493Z,98093.59
2024-02-13T02:15:22.988Z,98099.03
2024-02-13T02:17:55.296Z,98099.47
2024-02-13T02:20:24.549Z,98107.16
2024-02-13T02:22:54.534Z,98108.22
2024-02-13T02:25:24.335Z,98105.50
2024-02-13T02:27:52.975Z,98102.16
2024-02-13T02:30:21.434Z,98115.22
2024-02-13T02:32:49.932Z,98112.88
2024-02-13T02:35:19.254Z,98110.16
2024-02-13T02:37:49.859Z,98109.88
2024-02-13T02:40:19.708Z,98112.44
2024-02-13T02:42:53.431Z,98111.75
2024-02-13T02:45:22.091Z,98118.72
2024-02-13T02:47:50.949Z,98127.78
2024-02-13T02:50:19.576Z,98116.69
2024-02-13T02:52:48.042Z,98121.03
2024-02-13T02:55:19.040Z,98118.00
2024-02-13T02:57:48.013Z,98124.88
2024-02-13T03:00:21.696Z,98128.00
2024-02-13T03:02:50.537Z,98126.28
2024-02-13T03:05:19.231Z,98129.81
2024-02-13T03:07:48.157Z,98127.38
2024-02-13T03:10:16.829Z,98132.28
2024-02-13T03:12:45.815Z,98136.34
2024-02-13T03:15:14.705Z,98133.47
2024-02-13T03:17:49.422Z,98129.81
2024-02-13T03:20:18.084Z,98142.03
2024-02-13T03:22:46.493Z,98140.69
2024-02-13T03:25:15.208Z,98139.75
2024-02-13T03:27:43.593Z,98145.97
2024-02-13T03:30:14.419Z,98144.19
2024-02-13T03:32:45.580Z,98145.81
2024-02-13T03:35:14.200Z,98157.47
2024-02-13T03:37:43.002Z,98156.13
2024-02-13T03:40:16.164Z,98155.31
2024-02-13T03:42:45.858Z,98150.75
2024-02-13T03:45:14.533Z,98155.59
2024-02-13T03:47:44.747Z,98157.78
2024-02-13T03:50:13.724Z,98151.50
2024-02-13T03:52:42.476Z,98156.63
2024-02-13T03:55:11.570Z,98160.19
2024-02-13T03:57:41.514Z,98159.66
2024-02-13T04:00:12.807Z,98166.59
2024-02-13T04:02:41.311Z,98167.78
2024-02-13T04:05:14.074Z,98170.56
2024-02-13T04:07:42.595Z,98166.94
2024-02-13T04:10:11.450Z,98168.44
2024-02-13T04:12:40.184Z,98174.81
2024-02-13T04:15:10.209Z,98171.88
2024-02-13T04:17:38.832Z,98174.19
2024-02-13T04:20:10.149Z,98175.91
2024-02-13T04:22:40.149Z,98175.00
2024-02-13T04:25:09.592Z,98174.19
2024-02-13T04:27:38.738Z,98173.25
2024-02-13T04:30:09.416Z,98171.59
2024-02-13T04:32:39.514Z,98175.94
2024-02-13T04:35:10.091Z,98176.09
2024-02-13T04:37:40.036Z,98186.50
2024-02-13T04:40:12.416Z,98186.41
2024-02-13T04:42:42.313Z,98186.13
2024-02-13T04:45:11.334Z,98193.72
2024-02-13T04:47:40.587Z,98201.16
2024-02-13T04:50:12.906Z,98195.06
2024-02-13T04:52:44.438Z,98203.75
2024-02-13T04:55:13.117Z,98199.56
2024-02-13T04:57:41.958Z,98207.28
2024-02-13T05:00:19.843Z,98209.88
2024-02-13T05:02:51.415Z,98214.47
2024-02-13T05:05:38.136Z,98209.97
2024-02-13T05:08:08.818Z,98206.84
2024-02-13T05:10:37.178Z,98214.16
2024-02-13T05:13:05.935Z,98213.59
2024-02-13T05:15:34.448Z,98216.34
2024-02-13T05:18:03.006Z,98210.63
2024-02-13T05:20:31.485Z,98216.03
2024-02-13T05:23:00.501Z,98217.13
2024-02-13T05:25:31.328Z,98213.59
2024-02-13T05:28:01.084Z,98208.03
2024-02-13T05:30:29.497Z,98216.03
2024-02-13T05:32:57.956Z,98216.28
2024-02-13T05:35:26.635Z,98207.88
2024-02-13T05:37:55.156Z,98209.50
2024-02-13T05:40:23.905Z,98212.00
2024-02-13T05:42:55.973Z,98211.91
2024-02-13T05:45:24.414Z,98214.34
2024-02-13T05:47:53.096Z,98216.25
2024-02-13T05:50:22.085Z,98224.59
2024-02-13T05:52:51.591Z,98222.16
2024-02-13T05:55:20.188Z,98229.44
2024-02-13T05:57:48.682Z,98232.44
2024-02-13T06:00:19.337Z,98241.63
2024-02-13T06:02:47.930Z,98241.63
2024-02-13T06:05:16.749Z,98240.84
2024-02-13T06:07:45.868Z,98241.31
2024-02-13T06:10:15.220Z,98244.59
2024-02-13T06:12:43.664Z,98237.34
2024-02-13T06:15:12.447Z,98246.72
2024-02-13T06:17:44.049Z,98243.47
2024-02-13T06:20:14.057Z,98250.69
2024-02-13T06:22:42.881Z,98253.00
2024-02-13T06:25:12.513Z,98258.41
2024-02-13T06:27:41.708Z,98255.94
2024-02-13T06:30:11.756Z,98267.66
2024-02-13T06:32:42.020Z,98265.31
2024-02-13T06:35:11.049Z,98270.84
2024-02-13T06:37:41.341Z,98276.38
2024-02-13T06:40:11.633Z,98270.84
2024-02-13T06:42:40.515Z,98276.34
2024-02-13T06:45:11.912Z,98267.91
2024-02-13T06:47:42.126Z,98273.88
2024-02-13T06:50:13.740Z,98275.63
2024-02-13T06:52:43.565Z,98282.06
2024-02-13T06:55:12.282Z,98282.94
2024-02-13T06:57:40.796Z,98285.78
2024-02-13T07:00:10.644Z,98285.44
2024-02-13T07:02:39.378Z,98294.78
2024-02-13T07:05:10.925Z,98297.63
2024-02-13T07:07:46.752Z,98302.66
2024-02-13T07:10:17.932Z,98304.28
2024-02-13T07:12:46.754Z,98300.19
2024-02-13T07:15:15.823Z,98305.25
2024-02-13T07:17:53.033Z,98299.38
2024-02-13T07:20:29.973Z,98308.97
2024-02-13T07:22:58.963Z,98311.03
2024-02-13T07:25:27.548Z,98313.72
2024-02-13T07:27:56.385Z,98310.06
2024-02-13T07:30:25.176Z,98311.34
2024-02-13T07:32:53.862Z,98319.09
2024-02-13T07:35:23.523Z,98319.75
2024-02-13T07:37:53.719Z,98324.66
2024-02-13T07:40:22.081Z,98325.88
2024-02-13T07:42:50.670Z,98327.13
2024-02-13T07:45:19.511Z,98323.88
2024-02-13T07:47:48.253Z,98323.47
2024-02-13T07:50:19.515Z,98329.59
2024-02-13T07:52:47.886Z,98324.28
2024-02-13T07:55:17.764Z,98322.66
2024-02-13T07:57:51.346Z,98334.03
2024-02-13T08:00:22.335Z,98336.50
2024-02-13T08:02:52.559Z,98336.81
2024-02-13T08:05:21.648Z,98331.16
2024-02-13T08:07:50.179Z,98332.03
2024-02-13T08:10:20.072Z,98332.03
2024-02-13T08:12:48.589Z,98323.78
2024-02-13T08:15:17.181Z,98329.13
2024-02-13T08:17:45.768Z,98327.56
2024-02-13T08:20:14.525Z,98330.28
2024-02-13T08:22:43.294Z,98330.75
2024-02-13T08:25:11.923Z,98335.25
2024-02-13T08:27:42.193Z,98332.00
2024-02-13T08:30:12.529Z,98341.84
2024-02-13T08:32:43.462Z,98338.34
2024-02-13T08:35:12.769Z,98344.06
2024-02-13T08:37:41.565Z,98346.53
2024-02-13T08:40:14.296Z,98343.28
2024-02-13T08:42:46.331Z,98347.13
2024-02-13T08:45:14.845Z,98344.00
2024-02-13T08:47:43.472Z,98345.78
2024-02-13T08:50:14.195Z,98348.81
2024-02-13T08:52:43.012Z,98346.63
2024-02-13T08:55:12.357Z,98352.88
2024-02-13T08:57:41.065Z,98354.41
2024-02-13T09:00:17.150Z,98353.16
2024-02-13T09:02:47.376Z,98361.47
2024-02-13T09:05:16.352Z,98368.72
2024-02-13T09:07:45.036Z,98369.25
2024-02-13T09:10:14.386Z,98366.78
2024-02-13T09:12:46.682Z,98367.34
2024-02-13T09:15:16.928Z,98370.34
2024-02-13T09:17:47.750Z,98369.81
2024-02-13T09:20:17.156Z,98381.50
2024-02-13T09:22:46.758Z,98369.78
2024-02-13T09:25:17.336Z,98370.34
2024-02-13T09:27:49.365Z,98372.66
2024-02-13T09:30:19.856Z,98380.53
2024-02-13T09:32:49.088Z,98382.84
2024-02-13T09:35:19.030Z,98381.50
2024-02-13T09:37:47.581Z,98383.53
2024-02-13T09:40:16.217Z,98391.69
2024-02-13T09:42:46.836Z,98391.28
2024-02-13T09:45:17.360Z,98387.19
2024-02-13T09:47:49.098Z,98402.44
2024-02-13T09:50:18.135Z,98400.25
2024-02-13T09:52:50.839Z,98401.63
2024-02-13T09:55:21.359Z,98411.41
2024-02-13T09:57:51.537Z,98409.19
2024-02-13T10:00:21.316Z,98397.47
2024-02-13T10:02:52.261Z,98403.84
2024-02-13T10:05:22.479Z,98399.38
2024-02-13T10:07:51.594Z,98401.53
2024-02-13T10:10:20.088Z,98403.69
2024-02-13T10:12:54.998Z,98411.88
2024-02-13T10:15:25.231Z,98414.84
2024-02-13T10:17:56.394Z,98412.38
2024-02-13T10:20:25.204Z,98403.59
2024-02-13T10:22:56.149Z,98413.72
2024-02-13T10:25:30.789Z,98405.50
2024-02-13T10:28:02.246Z,98405.38
2024-02-13T10:30:32.325Z,98406.72
2024-02-13T10:33:07.636Z,98409.53
2024-02-13T10:35:39.486Z,98407.63
2024-02-13T10:38:09.911Z,98409.78
2024-02-13T10:40:42.329Z,98407.84
2024-02-13T10:43:13.496Z,98408.91
2024-02-13T10:45:43.906Z,98403.44
2024-02-13T10:48:35.501Z,98393.59
2024-02-13T10:51:06.874Z,98392.19
2024-02-13T10:53:36.794Z,98384.78
2024-02-13T10:56:06.964Z,98386.13
2024-02-13T10:58:36.189Z,98386.81
2024-02-13T11:01:06.981Z,98384.75
2024-02-13T11:03:39.793Z,98394.81
2024-02-13T11:06:08.996Z,98394.09
2024-02-13T11:08:38.110Z,98393.09
2024-02-13T11:11:18.152Z,98396.22
2024-02-13T11:13:46.964Z,98398.22
2024-02-13T11:16:15.729Z,98397.13
2024-02-13T11:18:50.791Z,98389.69
2024-02-13T11:21:23.566Z,98392.72
2024-02-13T11:24:00.500Z,98390.47
2024-02-13T11:26:36.164Z,98393.44
2024-02-13T11:29:12.873Z,98391.19
2024-02-13T11:31:43.714Z,98386.38
2024-02-13T11:34:15.382Z,98385.78
2024-02-13T11:36:50.316Z,98388.06
2024-02-13T11:39:20.489Z,98380.53
2024-02-13T11:42:01.695Z,98382.34
2024-02-13T11:44:31.683Z,98387.06
2024-02-13T11:47:00.832Z,98384.03
2024-02-13T11:49:32.197Z,98383.56
2024-02-13T11:52:01.398Z,98382.28
2024-02-13T11:54:31.785Z,98386.38
2024-02-13T11:57:04.456Z,98388.81
2024-02-13T11:59:34.215Z,98394.00
2024-02-13T12:02:03.016Z,98393.19
2024-02-13T12:04:33.822Z,98388.16
2024-02-13T12:07:07.426Z,98380.19
2024-02-13T12:09:38.422Z,98384.75
2024-02-13T12:12:09.895Z,98382.81
2024-02-13T12:14:40.372Z,98384.78
2024-02-13T12:17:11.260Z,98383.19
2024-02-13T12:19:43.067Z,98375.13
2024-02-13T12:22:14.704Z,98383.25
2024-02-13T12:24:46.928Z,98376.47
2024-02-13T12:27:18.030Z,98377.78
2024-02-13T12:29:51.374Z,98368.03
2024-02-13T12:32:21.646Z,98371.13
2024-02-13T12:34:55.859Z,98364.53
2024-02-13T12:37:25.676Z,98367.13
2024-02-13T12:39:54.097Z,98363.25
2024-02-13T12:42:22.935Z,98371.06
2024-02-13T12:44:51.854Z,98363.75
2024-02-13T12:47:22.861Z,98372.53
2024-02-13T12:49:53.265Z,98373.03
2024-02-13T12:52:24.027Z,98375.78
2024-02-13T12:54:53.423Z,98377.63
2024-02-13T12:57:22.324Z,98371.13
2024-02-13T12:59:53.620Z,98366.56
2024-02-13T13:02:28.686Z,98361.41
2024-02-13T13:05:01.375Z,98366.59
2024-02-13T13:07:31.528Z,98367.59
2024-02-13T13:09:59.909Z,98360.28
2024-02-13T13:12:28.453Z,98365.31
2024-02-13T13:15:04.009Z,98357.69
2024-02-13T13:17:40.569Z,98356.88
2024-02-13T13:20:18.915Z,98367.78
2024-02-13T13:22:48.967Z,98357.50
2024-02-13T13:25:25.234Z,98360.13
2024-02-13T13:27:55.654Z,98360.13
2024-02-13T13:30:26.024Z,98361.78
2024-02-13T13:32:56.910Z,98356.56
2024-02-13T13:35:29.502Z,98352.34
2024-02-13T13:38:00.071Z,98350.72
2024-02-13T13:40:34.532Z,98357.56
2024-02-13T13:43:03.292Z,98356.09
2024-02-13T13:45:31.818Z,98352.03
2024-02-13T13:48:01.392Z,98360.81
2024-02-13T13:50:31.283Z,98357.91
2024-02-13T13:53:01.879Z,98358.53
2024-02-13T13:55:30.572Z,98363.59
2024-02-13T13:57:59.083Z,98364.72
2024-02-13T14:00:31.137Z,98364.25
2024-02-13T14:03:00.075Z,98358.72
2024-02-13T14:05:28.498Z,98356.75
2024-02-13T14:07:58.426Z,98352.84
2024-02-13T14:10:26.963Z,98358.38
2024-02-13T14:12:55.560Z,98356.75
2024-02-13T14:15:25.441Z,98359.22
2024-02-13T14:17:53.939Z,98363.44
2024-02-13T14:20:22.491Z,98364.56
2024-02-13T14:22:51.494Z,98367.97
2024-02-13T14:25:22.072Z,98364.88
2024-02-13T14:27:50.626Z,98367.97
2024-02-13T14:30:20.306Z,98372.53
2024-02-13T14:32:49.317Z,98364.91
2024-02-13T14:35:18.823Z,98375.81
2024-02-13T14:37:47.919Z,98372.88
2024-02-13T14:40:17.532Z,98370.25
2024-02-13T14:42:48.236Z,98370.25
2024-02-13T14:45:17.452Z,98375.47
2024-02-13T14:47:47.116Z,98372.38
2024-02-13T14:50:18.767Z,98368.28
2024-02-13T14:52:47.524Z,98368.28
2024-02-13T14:55:16.884Z,98365.69
2024-02-13T14:58:00.178Z,98365.88
2024-02-13T15:00:36.454Z,98369.94
2024-02-13T15:03:05.800Z,98367.50
2024-02-13T15:05:35.120Z,98375.31
2024-02-13T15:08:03.625Z,98371.56
2024-02-13T15:10:32.719Z,98373.50
2024-02-13T15:13:03.195Z,98378.09
2024-02-13T15:15:33.105Z,98378.41
2024-02-13T15:18:01.785Z,98378.09
2024-02-13T15:20:30.335Z,98380.19
2024-02-13T15:22:58.851Z,98382.97
2024-02-13T15:25:28.107Z,98379.22
2024-02-13T15:27:56.573Z,98376.13
2024-02-13T15:30:26.898Z,98379.06
2024-02-13T15:32:55.431Z,98383.94
2024-02-13T15:35:32.189Z,98374.16
2024-02-13T15:38:18.479Z,98375.97
2024-02-13T15:41:04.655Z,98372.72
2024-02-13T15:43:50.781Z,98370.25
2024-02-13T15:46:37.836Z,98382.66
2024-02-13T15:49:07.414Z,98377.94
2024-02-13T15:51:36.005Z,98376.94
2024-02-13T15:54:10.269Z,98373.50
2024-02-13T15:56:40.834Z,98377.44
2024-02-13T15:59:10.816Z,98378.22
2024-02-13T16:01:40.750Z,98379.34
2024-02-13T16:04:12.326Z,98376.75
2024-02-13T16:06:41.690Z,98380.03
2024-02-13T16:09:12.005Z,98385.72
2024-02-13T16:11:41.216Z,98379.88
2024-02-13T16:14:10.585Z,98377.91
2024-02-13T16:16:40.780Z,98373.84
2024-02-13T16:19:10.505Z,98374.97
2024-02-13T16:21:39.148Z,98385.22
2024-02-13T16:24:09.330Z,98383.25
2024-02-13T16:26:39.151Z,98378.38
2024-02-13T16:29:07.728Z,98372.19
2024-02-13T16:31:36.265Z,98380.31
2024-02-13T16:34:06.426Z,98376.41
2024-02-13T16:36:35.177Z,98377.84
2024-02-13T16:39:05.597Z,98370.50
2024-02-13T16:41:34.462Z,98373.78
2024-02-13T16:44:03.425Z,98377.50
2024-02-13T16:46:35.450Z,98364.00
2024-02-13T16:49:05.863Z,98365.94
2024-02-13T16:51:34.483Z,98375.34
2024-02-13T16:54:03.703Z,98369.16
2024-02-13T16:56:32.504Z,98375.50
2024-02-13T16:59:01.198Z,98370.47
2024-02-13T17:01:29.875Z,98370.78
2024-02-13T17:03:58.860Z,98366.84
2024-02-13T17:06:29.779Z,98362.59
2024-02-13T17:08:58.414Z,98366.34
2024-02-13T17:11:27.051Z,98367.13
2024-02-13T17:13:56.524Z,98367.50
2024-02-13T17:16:25.302Z,98373.66
2024-02-13T17:18:54.616Z,98377.03
2024-02-13T17:21:23.911Z,98374.22
2024-02-13T17:23:54.605Z,98377.78
2024-02-13T17:26:24.251Z,98375.00
2024-02-13T17:28:52.804Z,98381.03
2024-02-13T17:31:21.522Z,98367.72
2024-02-13T17:33:50.728Z,98379.09
2024-02-13T17:36:19.850Z,98374.22
2024-02-13T17:38:49.904Z,98367.06
2024-02-13T17:41:20.580Z,98369.69
2024-02-13T17:43:50.404Z,98371.78
2024-02-13T17:46:18.874Z,98378.75
2024-02-13T17:48:49.684Z,98376.47
2024-02-13T17:51:20.269Z,98379.88
2024-02-13T17:53:49.453Z,98375.81
2024-02-13T17:56:19.407Z,98372.53
2024-02-13T17:58:47.885Z,98371.06
2024-02-13T18:01:17.133Z,98374.94
2024-02-13T18:03:45.670Z,98364.03
2024-02-13T18:06:15.500Z,98363.13
2024-02-13T18:08:44.590Z,98361.50
2024-02-13T18:11:13.954Z,98364.72
2024-02-13T18:13:44.939Z,98370.88
2024-02-13T18:16:13.386Z,98361.91
2024-02-13T18:18:42.313Z,98358.66
2024-02-13T18:21:10.879Z,98344.72
2024-02-13T18:23:39.521Z,98342.44
2024-02-13T18:26:08.022Z,98342.25
2024-02-13T18:28:38.486Z,98339.97
2024-02-13T18:31:08.409Z,98339.81
2024-02-13T18:33:37.065Z,98340.31
2024-02-13T18:36:06.137Z,98339.00
2024-02-13T18:38:35.164Z,98346.59
2024-02-13T18:41:03.967Z,98342.50
2024-02-13T18:43:32.482Z,98343.63
2024-02-13T18:46:01.305Z,98336.00
2024-02-13T18:48:32.917Z,98338.09
2024-02-13T18:51:04.517Z,98338.09
2024-02-13T18:53:34.063Z,98342.31
2024-02-13T18:56:03.864Z,98334.53
2024-02-13T18:58:36.841Z,98339.19
2024-02-13T19:01:05.976Z,98344.56
2024-02-13T19:03:36.856Z,98340.19
2024-02-13T19:06:05.992Z,98342.78
2024-02-13T19:08:36.387Z,98336.59
2024-02-13T19:11:05.022Z,98341.97
2024-02-13T19:13:33.737Z,98347.31
2024-02-13T19:16:02.242Z,98344.50
2024-02-13T19:18:30.830Z,98344.50
2024-02-13T19:21:01.039Z,98354.69
2024-02-13T19:23:30.228Z,98349.81
2024-02-13T19:25:59.379Z,98344.72
2024-02-13T19:28:27.839Z,98349.97
2024-02-13T19:30:56.384Z,98346.41
2024-02-13T19:33:25.464Z,98350.19
2024-02-13T19:35:54.408Z,98344.94
2024-02-13T19:38:24.313Z,98330.63
2024-02-13T19:40:53.371Z,98338.56
2024-02-13T19:43:22.053Z,98338.13
2024-02-13T19:45:50.776Z,98340.56
2024-02-13T19:48:19.859Z,98333.69
2024-02-13T19:50:48.574Z,98344.13
2024-02-13T19:53:16.967Z,98344.13
2024-02-13T19:55:46.842Z,98334.50
2024-02-13T19:58:16.227Z,98341.81
2024-02-13T20:00:45.061Z,98346.94
2024-02-13T20:03:14.425Z,98347.44
2024-02-13T20:05:44.563Z,98346.13
2024-02-13T20:08:13.130Z,98342.94
2024-02-13T20:10:41.887Z,98341.13
2024-02-13T20:13:11.669Z,98339.66
2024-02-13T20:15:40.461Z,98347.44
2024-02-13T20:18:26.007Z,98339.00
2024-02-13T20:20:54.894Z,98347.31
2024-02-13T20:23:23.855Z,98348.72
2024-02-13T20:25:53.652Z,98352.50
2024-02-13T20:28:23.429Z,98347.97
2024-02-13T20:30:51.929Z,98346.19
2024-02-13T20:33:20.656Z,98349.59
2024-02-13T20:36:00.280Z,98346.63
2024-02-13T20:38:29.056Z,98348.19
2024-02-13T20:40:57.529Z,98349.81
2024-02-13T20:43:28.961Z,98346.63
2024-02-13T20:45:58.560Z,98350.22
2024-02-13T20:48:27.395Z,98348.66
2024-02-13T20:50:56.175Z,98345.00
2024-02-13T20:53:24.656Z,98358.41
2024-02-13T20:55:57.117Z,98352.91
2024-02-13T20:58:27.168Z,98341.38
2024-02-13T21:00:57.034Z,98339.91
2024-02-13T21:03:25.835Z,98345.34
2024-02-13T21:05:56.250Z,98345.28
2024-02-13T21:08:25.450Z,98348.16
2024-02-13T21:10:53.953Z,98347.56
2024-02-13T21:13:22.440Z,98346.31
2024-02-13T21:15:52.341Z,98342.69
2024-02-13T21:18:20.942Z,98358.53
2024-02-13T21:21:08.958Z,98345.28
2024-02-13T21:23:54.512Z,98346.91
2024-02-13T21:26:23.277Z,98351.06
2024-02-13T21:28:51.968Z,98350.38
2024-02-13T21:31:21.842Z,98343.84
2024-02-13T21:33:50.468Z,98340.88
2024-02-13T21:36:19.031Z,98348.84
2024-02-13T21:38:47.729Z,98340.94
2024-02-13T21:41:16.378Z,98338.75
2024-02-13T21:43:44.820Z,98343.34
2024-02-13T21:46:13.253Z,98340.94
2024-02-13T21:48:43.508Z,98333.28
2024-02-13T21:51:12.156Z,98346.38
2024-02-13T21:53:40.739Z,98340.66
2024-02-13T21:56:09.726Z,98341.66
2024-02-13T21:58:38.189Z,98334.41
2024-02-13T22:01:08.913Z,98340.44
2024-02-13T22:03:37.880Z,98334.47
2024-02-13T22:06:08.585Z,98332.41
2024-02-13T22:08:37.208Z,98333.41
2024-02-13T22:11:06.048Z,98346.81
2024-02-13T22:13:34.415Z,98348.19
2024-02-13T22:16:03.157Z,98347.88
2024-02-13T22:18:31.721Z,98342.16
2024-02-13T22:21:00.383Z,98339.13
2024-02-13T22:23:30.719Z,98351.00
2024-02-13T22:26:03.067Z,98355.47
2024-02-13T22:28:31.548Z,98344.69
2024-02-13T22:31:00.414Z,98353.03
2024-02-13T22:33:28.909Z,98352.88
2024-02-13T22:35:57.445Z,98357.66
2024-02-13T22:38:26.378Z,98352.06
2024-02-13T22:40:56.222Z,98357.25
2024-02-13T22:43:24.604Z,98362.44
2024-02-13T22:45:53.010Z,98368.84
2024-02-13T22:48:24.023Z,98362.53
2024-02-13T22:50:52.526Z,98366.09
2024-02-13T22:53:21.015Z,98362.25
2024-02-13T22:55:49.452Z,98360.31
2024-02-13T22:58:19.417Z,98367.44
2024-02-13T23:00:51.103Z,98370.97
2024-02-13T23:03:20.549Z,98364.34
2024-02-13T23:05:52.109Z,98355.72
2024-02-13T23:08:20.626Z,98346.47
2024-02-13T23:10:49.194Z,98349.59
2024-02-13T23:13:24.806Z,98352.81
2024-02-13T23:15:54.909Z,98356.19
2024-02-13T23:18:23.384Z,98357.91
2024-02-13T23:20:52.814Z,98350.50
2024-02-13T23:23:21.278Z,98354.97
2024-02-13T23:25:49.906Z,98354.31
2024-02-13T23:28:19.825Z,98346.59
2024-02-13T23:30:49.131Z,98344.72
2024-02-13T23:33:17.930Z,98341.53
2024-02-13T23:35:47.722Z,98350.78
2024-02-13T23:38:15.884Z,98345.66
2024-02-13T23:40:44.548Z,98337.22
2024-02-13T23:43:13.254Z,98333.28
2024-02-13T23:45:43.030Z,98333.94
2024-02-13T23:48:11.554Z,98332.19
2024-02-13T23:50:40.077Z,98332.69
2024-02-13T23:53:09.115Z,98330.81
2024-02-13T23:55:37.636Z,98325.38
2024-02-13T23:58:07.408Z,98329.94
